createdAt,value
2018-11-25T00:01:26.859Z,22.95
2018-11-25T00:04:14.525Z,17.47
2018-11-25T00:07:01.852Z,16.90
2018-11-25T00:09:49.671Z,15.90
2018-11-25T00:12:37.037Z,16.00
2018-11-25T00:15:24.557Z,15.03
2018-11-25T00:18:11.984Z,15.00
2018-11-25T00:21:00.755Z,14.00
2018-11-25T00:23:48.073Z,13.73
2018-11-25T00:26:35.299Z,14.20
2018-11-25T00:29:22.352Z,14.47
2018-11-25T00:32:09.738Z,13.97
2018-11-25T00:34:56.791Z,14.00
2018-11-25T00:37:48.695Z,14.47
2018-11-25T00:40:31.700Z,13.03
2018-11-25T00:43:18.857Z,13.17
2018-11-25T00:46:06.318Z,13.80
2018-11-25T00:48:53.842Z,15.13
2018-11-25T00:51:41.019Z,15.00
2018-11-25T00:54:28.748Z,13.97
2018-11-25T00:57:17.398Z,14.53
2018-11-25T01:00:04.826Z,14.63
2018-11-25T01:02:52.546Z,14.63
2018-11-25T01:05:40.222Z,15.30
2018-11-25T01:08:27.672Z,13.97
2018-11-25T01:11:15.498Z,15.30
2018-11-25T01:14:02.976Z,14.30
2018-11-25T01:16:50.196Z,14.93
2018-11-25T01:19:37.570Z,14.00
2018-11-25T01:22:24.984Z,14.30
2018-11-25T01:25:12.818Z,14.97
2018-11-25T01:28:00.785Z,14.27
2018-11-25T01:30:48.765Z,14.80
2018-11-25T01:33:36.302Z,14.93
2018-11-25T01:36:23.428Z,16.13
2018-11-25T01:39:10.629Z,13.90
2018-11-25T01:41:57.943Z,13.17
2018-11-25T01:44:45.795Z,12.63
2018-11-25T01:47:33.259Z,13.90
2018-11-25T01:50:20.355Z,14.13
2018-11-25T01:53:07.837Z,13.00
2018-11-25T01:55:55.118Z,13.37
2018-11-25T01:58:42.501Z,20.95
2018-11-25T02:01:29.965Z,15.33
2018-11-25T02:04:19.743Z,14.63
2018-11-25T02:07:04.870Z,22.30
2018-11-25T02:09:52.064Z,15.87
2018-11-25T02:12:40.915Z,16.77
2018-11-25T02:15:28.346Z,13.77
2018-11-25T02:18:15.664Z,15.37
2018-11-25T02:21:02.674Z,14.63
2018-11-25T02:23:49.831Z,20.67
2018-11-25T02:26:37.006Z,15.70
2018-11-25T02:29:24.250Z,14.63
2018-11-25T02:32:11.359Z,13.77
2018-11-25T02:34:59.809Z,13.30
2018-11-25T02:37:46.817Z,13.13
2018-11-25T02:40:34.284Z,12.93
2018-11-25T02:43:21.661Z,12.20
2018-11-25T02:46:09.328Z,13.13
2018-11-25T02:48:56.651Z,13.50
2018-11-25T02:51:43.824Z,13.07
2018-11-25T02:54:31.436Z,13.77
2018-11-25T02:57:18.613Z,14.00
2018-11-25T03:00:05.892Z,13.40
2018-11-25T03:02:53.500Z,12.63
2018-11-25T03:05:40.736Z,12.73
2018-11-25T03:08:27.945Z,18.92
2018-11-25T03:11:22.747Z,13.87
2018-11-25T03:14:09.746Z,12.43
2018-11-25T03:16:57.156Z,13.17
2018-11-25T03:19:44.437Z,12.73
2018-11-25T03:22:31.962Z,12.93
2018-11-25T03:25:19.081Z,13.17
2018-11-25T03:28:06.342Z,13.40
2018-11-25T03:30:53.551Z,13.23
2018-11-25T03:33:40.897Z,13.77
2018-11-25T03:36:28.562Z,13.63
2018-11-25T03:39:16.002Z,13.90
2018-11-25T03:42:03.572Z,13.33
2018-11-25T03:44:50.936Z,13.77
2018-11-25T03:47:45.687Z,12.93
2018-11-25T03:50:32.882Z,13.47
2018-11-25T03:53:20.167Z,13.30
2018-11-25T03:56:10.348Z,13.47
2018-11-25T03:58:57.777Z,13.53
2018-11-25T04:01:45.050Z,13.87
2018-11-25T04:04:32.418Z,14.10
2018-11-25T04:10:25.635Z,14.10
2018-11-25T04:13:13.142Z,20.27
2018-11-25T04:16:00.457Z,16.67
2018-11-25T04:18:47.939Z,21.87
2018-11-25T04:21:35.578Z,15.30
2018-11-25T04:24:22.987Z,16.17
2018-11-25T04:27:11.027Z,16.27
2018-11-25T04:30:13.670Z,15.17
2018-11-25T04:33:00.651Z,14.93
2018-11-25T04:35:48.138Z,14.40
2018-11-25T04:38:35.659Z,14.97
2018-11-25T04:41:22.980Z,14.47
2018-11-25T04:44:10.200Z,12.27
2018-11-25T04:46:57.214Z,14.30
2018-11-25T04:49:44.643Z,14.67
2018-11-25T04:52:31.834Z,14.50
2018-11-25T04:55:19.213Z,13.97
2018-11-25T04:58:06.448Z,18.35
2018-11-25T05:00:53.707Z,18.23
2018-11-25T05:03:41.061Z,14.73
2018-11-25T05:06:28.545Z,19.52
2018-11-25T05:09:15.926Z,13.50
2018-11-25T05:12:03.329Z,13.67
2018-11-25T05:14:50.752Z,12.93
2018-11-25T05:17:37.877Z,13.53
2018-11-25T05:20:27.623Z,13.33
2018-11-25T05:23:15.394Z,17.10
2018-11-25T05:26:10.433Z,13.27
2018-11-25T05:28:57.291Z,12.03
2018-11-25T05:31:59.872Z,8.90
2018-11-25T05:34:47.545Z,14.90
2018-11-25T05:37:35.108Z,11.00
2018-11-25T05:40:22.184Z,16.43
2018-11-25T05:43:17.237Z,13.90
2018-11-25T05:46:04.590Z,11.67
2018-11-25T05:48:51.836Z,12.70
2018-11-25T05:51:39.097Z,19.30
2018-11-25T05:54:26.295Z,14.97
2018-11-25T05:57:14.560Z,14.07
2018-11-25T06:00:02.229Z,13.60
2018-11-25T06:02:49.495Z,15.07
2018-11-25T06:05:37.140Z,15.00
2018-11-25T06:08:24.532Z,14.37
2018-11-25T06:11:11.713Z,14.43
2018-11-25T06:13:59.341Z,14.17
2018-11-25T06:16:46.763Z,15.20
2018-11-25T06:19:33.883Z,15.43
2018-11-25T06:22:21.305Z,15.47
2018-11-25T06:25:11.948Z,15.67
2018-11-25T06:27:59.589Z,14.27
2018-11-25T06:30:47.879Z,14.10
2018-11-25T06:33:35.242Z,21.27
2018-11-25T06:36:22.485Z,19.80
2018-11-25T06:39:09.640Z,15.80
2018-11-25T06:41:57.155Z,14.03
2018-11-25T06:44:44.578Z,13.07
2018-11-25T06:47:31.802Z,13.70
2018-11-25T06:50:19.162Z,14.40
2018-11-25T06:53:06.632Z,13.27
2018-11-25T06:55:54.212Z,17.70
2018-11-25T06:58:41.558Z,16.00
2018-11-25T07:01:28.977Z,14.47
2018-11-25T07:04:16.442Z,14.47
2018-11-25T07:07:03.804Z,15.20
2018-11-25T07:09:51.255Z,23.30
2018-11-25T07:12:46.245Z,24.12
2018-11-25T07:15:33.404Z,17.50
2018-11-25T07:18:20.728Z,16.20
2018-11-25T07:21:08.155Z,17.60
2018-11-25T07:23:55.610Z,17.00
2018-11-25T07:26:42.998Z,15.57
2018-11-25T07:29:32.717Z,16.17
2018-11-25T07:32:19.787Z,15.93
2018-11-25T07:35:07.064Z,15.27
2018-11-25T07:37:55.594Z,16.60
2018-11-25T07:40:42.732Z,16.40
2018-11-25T07:43:30.091Z,15.90
2018-11-25T07:46:17.958Z,16.73
2018-11-25T07:49:04.979Z,15.37
2018-11-25T07:51:52.462Z,16.97
2018-11-25T07:54:39.723Z,15.80
2018-11-25T07:57:27.906Z,15.73
2018-11-25T08:00:15.851Z,14.40
2018-11-25T08:03:03.257Z,14.97
2018-11-25T08:05:51.671Z,15.20
2018-11-25T08:08:39.350Z,16.10
2018-11-25T08:11:26.823Z,16.53
2018-11-25T08:14:15.117Z,18.33
2018-11-25T08:17:03.298Z,17.63
2018-11-25T08:19:50.912Z,16.10
2018-11-25T08:22:38.201Z,15.80
2018-11-25T08:25:25.744Z,15.33
2018-11-25T08:28:14.350Z,20.17
2018-11-25T08:31:01.486Z,19.70
2018-11-25T08:33:48.929Z,18.92
2018-11-25T08:36:36.930Z,15.87
2018-11-25T08:39:23.929Z,13.97
2018-11-25T08:42:11.838Z,15.63
2018-11-25T08:45:11.668Z,15.60
2018-11-25T08:47:59.274Z,14.53
2018-11-25T08:50:46.721Z,15.50
2018-11-25T08:53:34.077Z,15.33
2018-11-25T08:56:21.641Z,15.03
2018-11-25T08:59:09.119Z,15.47
2018-11-25T09:01:56.487Z,14.73
2018-11-25T09:04:44.337Z,16.07
2018-11-25T09:07:31.937Z,19.58
2018-11-25T09:10:19.745Z,16.73
2018-11-25T09:13:07.196Z,15.97
2018-11-25T09:15:54.726Z,15.43
2018-11-25T09:18:42.552Z,15.23
2018-11-25T09:21:30.358Z,15.00
2018-11-25T09:24:17.937Z,14.83
2018-11-25T09:27:05.486Z,14.87
2018-11-25T09:30:00.954Z,14.60
2018-11-25T09:32:51.610Z,13.93
2018-11-25T09:35:38.742Z,16.80
2018-11-25T09:38:26.836Z,16.23
2018-11-25T09:41:14.493Z,15.77
2018-11-25T09:44:05.699Z,19.23
2018-11-25T09:46:53.639Z,15.63
2018-11-25T09:49:40.818Z,17.67
2018-11-25T09:52:28.524Z,16.10
2018-11-25T09:55:15.685Z,17.60
2018-11-25T09:58:03.069Z,16.30
2018-11-25T10:00:54.231Z,16.30
2018-11-25T10:03:41.936Z,16.50
2018-11-25T10:06:29.783Z,14.97
2018-11-25T10:09:17.272Z,15.23
2018-11-25T10:12:05.821Z,16.20
2018-11-25T10:14:53.471Z,15.20
2018-11-25T10:17:42.888Z,15.40
2018-11-25T10:20:31.403Z,15.83
2018-11-25T10:23:18.944Z,18.77
2018-11-25T10:26:08.957Z,16.37
2018-11-25T10:32:16.067Z,15.57
2018-11-25T10:35:03.271Z,15.47
2018-11-25T10:37:50.578Z,15.67
2018-11-25T10:40:47.111Z,15.43
2018-11-25T10:43:35.163Z,18.35
2018-11-25T10:46:22.534Z,18.33
2018-11-25T10:49:10.107Z,16.27
2018-11-25T10:51:57.876Z,16.02
2018-11-25T10:54:45.089Z,14.95
2018-11-25T10:57:40.565Z,15.35
2018-11-25T11:03:08.676Z,16.03
2018-11-25T11:05:57.781Z,16.40
2018-11-25T11:08:46.356Z,14.98
2018-11-25T11:11:33.354Z,15.63
2018-11-25T11:14:23.029Z,16.58
2018-11-25T11:17:10.349Z,16.42
2018-11-25T11:19:58.117Z,15.63
2018-11-25T11:22:45.631Z,18.40
2018-11-25T11:25:33.303Z,16.65
2018-11-25T11:28:21.682Z,14.87
2018-11-25T11:31:13.274Z,15.80
2018-11-25T11:33:58.882Z,15.98
2018-11-25T11:36:46.495Z,15.98
2018-11-25T11:42:44.251Z,15.82
2018-11-25T11:45:32.480Z,17.70
2018-11-25T11:48:20.888Z,15.60
2018-11-25T11:51:08.894Z,16.02
2018-11-25T11:54:00.759Z,15.03
2018-11-25T11:56:48.627Z,15.20
2018-11-25T11:59:36.202Z,14.73
2018-11-25T12:02:23.470Z,15.07
2018-11-25T12:05:11.190Z,15.57
2018-11-25T12:07:58.768Z,15.25
2018-11-25T12:10:48.312Z,16.60
2018-11-25T12:13:35.797Z,15.40
2018-11-25T12:16:23.426Z,15.13
2018-11-25T12:19:11.128Z,15.77
2018-11-25T12:21:58.974Z,15.55
2018-11-25T12:24:55.864Z,15.18
2018-11-25T12:27:43.115Z,15.35
2018-11-25T12:30:31.079Z,14.30
2018-11-25T12:33:29.019Z,15.07
2018-11-25T12:36:16.852Z,14.60
2018-11-25T12:39:04.493Z,14.52
2018-11-25T12:41:53.193Z,14.45
2018-11-25T12:44:40.258Z,13.52
2018-11-25T12:47:27.955Z,13.77
2018-11-25T12:53:21.313Z,13.80
2018-11-25T12:56:08.981Z,14.57
2018-11-25T12:58:56.745Z,13.62
2018-11-25T13:01:43.859Z,14.52
2018-11-25T13:04:31.289Z,15.77
2018-11-25T13:07:18.977Z,14.82
2018-11-25T13:10:06.385Z,17.92
2018-11-25T13:12:53.306Z,14.98
2018-11-25T13:15:40.809Z,14.87
2018-11-25T13:18:28.435Z,14.25
2018-11-25T13:24:26.392Z,14.90
2018-11-25T13:27:14.267Z,13.97
2018-11-25T13:30:03.081Z,12.07
2018-11-25T13:35:57.921Z,10.73
2018-11-25T13:38:48.986Z,12.70
2018-11-25T13:41:36.616Z,11.60
2018-11-25T13:44:25.409Z,11.30
2018-11-25T13:47:12.815Z,11.20
2018-11-25T13:53:06.755Z,13.73
2018-11-25T13:55:55.559Z,13.57
2018-11-25T13:58:43.049Z,14.85
2018-11-25T14:01:30.516Z,12.57
2018-11-25T14:04:17.996Z,12.63
2018-11-25T14:07:05.702Z,11.63
2018-11-25T14:09:52.870Z,11.33
2018-11-25T14:12:40.209Z,11.37
2018-11-25T14:15:27.628Z,14.77
2018-11-25T14:18:14.898Z,11.37
2018-11-25T14:21:02.571Z,12.67
2018-11-25T14:27:05.108Z,12.43
2018-11-25T14:29:53.269Z,11.23
2018-11-25T14:32:40.514Z,11.57
2018-11-25T14:35:28.091Z,12.73
2018-11-25T14:38:16.617Z,11.40
2018-11-25T14:41:04.615Z,12.33
2018-11-25T14:43:51.804Z,12.60
2018-11-25T14:46:39.829Z,12.20
2018-11-25T14:49:34.171Z,13.63
2018-11-25T14:52:22.410Z,13.90
2018-11-25T14:55:10.183Z,13.70
2018-11-25T14:57:57.307Z,13.67
2018-11-25T15:00:44.422Z,14.20
2018-11-25T15:03:39.831Z,13.33
2018-11-25T15:06:29.520Z,13.83
2018-11-25T15:09:14.512Z,14.27
2018-11-25T15:12:03.018Z,23.10
2018-11-25T15:14:50.591Z,17.10
2018-11-25T15:17:38.375Z,16.17
2018-11-25T15:20:25.489Z,23.00
2018-11-25T15:23:13.017Z,27.73
2018-11-25T15:29:06.660Z,16.37
2018-11-25T15:31:57.661Z,20.63
2018-11-25T15:34:44.717Z,30.77
2018-11-25T15:37:34.708Z,18.70
2018-11-25T15:40:22.871Z,17.80
2018-11-25T15:43:10.042Z,23.33
2018-11-25T15:45:57.728Z,19.93
2018-11-25T15:48:45.249Z,18.30
2018-11-25T15:51:32.810Z,17.40
2018-11-25T15:54:20.098Z,16.53
2018-11-25T15:57:07.420Z,16.37
2018-11-25T15:59:54.578Z,16.33
2018-11-25T16:02:42.002Z,16.17
2018-11-25T16:05:36.976Z,18.57
2018-11-25T16:08:25.052Z,19.17
2018-11-25T16:11:12.065Z,17.30
2018-11-25T16:13:59.586Z,16.27
2018-11-25T16:16:46.784Z,16.37
2018-11-25T16:19:34.175Z,17.23
2018-11-25T16:22:22.061Z,16.77
2018-11-25T16:25:09.194Z,16.40
2018-11-25T16:27:56.985Z,16.80
2018-11-25T16:30:44.510Z,19.03
2018-11-25T16:33:32.037Z,18.20
2018-11-25T16:36:19.255Z,18.47
2018-11-25T16:39:06.647Z,29.08
2018-11-25T16:41:57.926Z,20.47
2018-11-25T16:44:42.353Z,20.17
2018-11-25T16:47:29.709Z,19.90
2018-11-25T16:50:25.062Z,16.63
2018-11-25T16:53:06.585Z,17.67
2018-11-25T16:55:53.968Z,17.40
2018-11-25T17:01:47.579Z,17.10
2018-11-25T17:04:34.859Z,17.17
2018-11-25T17:07:23.354Z,28.40
2018-11-25T17:10:11.692Z,20.83
2018-11-25T17:12:58.767Z,17.97
2018-11-25T17:15:46.189Z,17.13
2018-11-25T17:18:33.716Z,26.50
2018-11-25T17:21:21.399Z,19.23
2018-11-25T17:24:09.084Z,17.10
2018-11-25T17:26:56.432Z,17.23
2018-11-25T17:32:52.323Z,17.40
2018-11-25T17:35:42.207Z,19.07
2018-11-25T17:38:29.204Z,18.00
2018-11-25T17:41:16.519Z,18.50
2018-11-25T17:44:04.207Z,16.47
2018-11-25T17:46:51.527Z,17.40
2018-11-25T17:49:42.101Z,16.83
2018-11-25T17:52:29.242Z,27.13
2018-11-25T17:55:16.440Z,21.00
2018-11-25T17:58:03.867Z,19.47
2018-11-25T18:00:51.491Z,19.73
2018-11-25T18:03:38.593Z,19.63
2018-11-25T18:06:25.965Z,21.10
2018-11-25T18:09:13.250Z,21.93
2018-11-25T18:12:01.040Z,23.57
2018-11-25T18:14:48.355Z,22.63
2018-11-25T18:17:35.919Z,23.77
2018-11-25T18:20:24.106Z,24.87
2018-11-25T18:26:24.165Z,23.90
2018-11-25T18:29:11.481Z,25.00
2018-11-25T18:32:00.850Z,23.43
2018-11-25T18:34:48.927Z,25.63
2018-11-25T18:37:40.434Z,24.53
2018-11-25T18:40:45.230Z,38.78
2018-11-25T18:43:32.095Z,29.07
2018-11-25T18:46:20.086Z,28.37
2018-11-25T18:49:07.806Z,27.37
2018-11-25T18:51:56.086Z,30.97
2018-11-25T18:54:56.803Z,23.50
2018-11-25T18:57:45.354Z,21.90
2018-11-25T19:00:33.293Z,21.03
2018-11-25T19:03:21.813Z,23.73
2018-11-25T19:06:10.572Z,31.10
2018-11-25T19:08:59.196Z,25.33
2018-11-25T19:11:50.449Z,20.87
2018-11-25T19:14:38.068Z,19.23
2018-11-25T19:17:25.627Z,18.93
2018-11-25T19:20:12.643Z,19.97
2018-11-25T19:23:00.836Z,20.03
2018-11-25T19:25:47.949Z,18.60
2018-11-25T19:28:36.807Z,18.13
2018-11-25T19:31:23.859Z,18.57
2018-11-25T19:34:10.942Z,17.57
2018-11-25T19:36:58.463Z,18.43
2018-11-25T19:42:52.966Z,18.20
2018-11-25T19:45:45.732Z,17.20
2018-11-25T19:48:33.641Z,18.50
2018-11-25T19:51:21.221Z,18.83
2018-11-25T19:54:11.716Z,18.23
2018-11-25T19:56:59.652Z,24.65
2018-11-25T19:59:47.681Z,18.87
2018-11-25T20:02:35.872Z,23.10
2018-11-25T20:05:23.602Z,17.87
2018-11-25T20:08:11.559Z,16.63
2018-11-25T20:11:00.913Z,16.30
2018-11-25T20:13:50.522Z,18.20
2018-11-25T20:16:38.454Z,20.73
2018-11-25T20:19:26.392Z,18.10
2018-11-25T20:22:24.719Z,18.03
2018-11-25T20:25:10.456Z,17.17
2018-11-25T20:27:58.715Z,24.48
2018-11-25T20:30:46.859Z,19.83
2018-11-25T20:33:40.501Z,18.07
2018-11-25T20:36:29.384Z,18.63
2018-11-25T20:39:20.153Z,18.50
2018-11-25T20:42:08.085Z,19.80
2018-11-25T20:44:55.731Z,18.57
2018-11-25T20:48:01.459Z,18.40
2018-11-25T20:50:50.381Z,17.57
2018-11-25T20:53:53.606Z,26.52
2018-11-25T20:56:47.540Z,19.80
2018-11-25T20:59:35.711Z,27.90
2018-11-25T21:02:29.362Z,23.13
2018-11-25T21:05:12.652Z,21.57
2018-11-25T21:08:00.364Z,23.17
2018-11-25T21:10:49.593Z,21.97
2018-11-25T21:13:37.761Z,21.17
2018-11-25T21:16:25.536Z,29.70
2018-11-25T21:19:13.347Z,25.57
2018-11-25T21:22:00.478Z,24.13
2018-11-25T21:24:57.015Z,22.80
2018-11-25T21:27:45.354Z,22.73
2018-11-25T21:30:33.505Z,23.20
2018-11-25T21:33:22.472Z,23.17
2018-11-25T21:36:09.908Z,24.33
2018-11-25T21:39:00.912Z,24.93
2018-11-25T21:41:49.536Z,25.30
2018-11-25T21:44:37.900Z,24.73
2018-11-25T21:47:25.166Z,25.23
2018-11-25T21:50:15.696Z,24.93
2018-11-25T21:53:10.903Z,25.13
2018-11-25T21:55:59.553Z,25.97
2018-11-25T21:58:47.536Z,24.10
2018-11-25T22:01:37.554Z,26.03
2018-11-25T22:04:25.762Z,23.03
2018-11-25T22:07:17.703Z,30.60
2018-11-25T22:10:05.588Z,22.87
2018-11-25T22:12:53.939Z,22.37
2018-11-25T22:15:41.876Z,28.92
2018-11-25T22:18:30.086Z,23.67
2018-11-25T22:21:17.871Z,25.03
2018-11-25T22:24:06.385Z,23.57
2018-11-25T22:26:55.714Z,24.63
2018-11-25T22:29:45.941Z,23.10
2018-11-25T22:32:34.981Z,20.43
2018-11-25T22:35:22.849Z,20.27
2018-11-25T22:38:12.928Z,21.40
2018-11-25T22:41:00.377Z,19.93
2018-11-25T22:43:48.936Z,21.20
2018-11-25T22:46:36.701Z,20.73
2018-11-25T22:49:24.655Z,19.70
2018-11-25T22:52:12.807Z,21.60
2018-11-25T22:55:01.274Z,21.43
2018-11-25T22:57:53.363Z,22.77
2018-11-25T23:00:40.981Z,22.63
2018-11-25T23:03:34.344Z,22.07
2018-11-25T23:06:49.349Z,24.43
2018-11-25T23:09:36.693Z,23.60
2018-11-25T23:12:24.483Z,23.20
2018-11-25T23:15:15.062Z,32.72
2018-11-25T23:18:03.037Z,27.27
2018-11-25T23:20:50.992Z,25.13
2018-11-25T23:23:41.324Z,31.50
2018-11-25T23:26:29.778Z,25.83
2018-11-25T23:29:19.054Z,24.30
2018-11-25T23:32:06.843Z,24.00
2018-11-25T23:34:54.529Z,23.23
2018-11-25T23:37:42.139Z,31.45
2018-11-25T23:40:31.447Z,31.23
2018-11-25T23:43:19.136Z,30.92
2018-11-25T23:46:07.184Z,23.57
2018-11-25T23:48:54.680Z,22.70
2018-11-25T23:51:41.537Z,22.60
2018-11-25T23:54:28.759Z,21.13
2018-11-25T23:57:15.734Z,28.65
